sensor_id;sensor_type;location;lat;lon;timestamp;pressure;altitude;pressure_sealevel;temperature;humidity
11678;BME280;5895;41.950;24.372;2023-06-01T00:01:01;87096.41;;;10.48;100.00
11678;BME280;5895;41.950;24.372;2023-06-01T00:03:31;87101.47;;;10.43;100.00
11678;BME280;5895;41.950;24.372;2023-06-01T00:05:58;87098.88;;;10.43;100.00
11678;BME280;5895;41.950;24.372;2023-06-01T00:08:25;87098.31;;;10.41;100.00
11678;BME280;5895;41.950;24.372;2023-06-01T00:10:52;87095.94;;;10.40;100.00
11678;BME280;5895;41.950;24.372;2023-06-01T00:13:20;87094.56;;;10.37;100.00
11678;BME280;5895;41.950;24.372;2023-06-01T00:15:47;87093.28;;;10.28;100.00
11678;BME280;5895;41.950;24.372;2023-06-01T00:18:14;87099.81;;;10.30;100.00
11678;BME280;5895;41.950;24.372;2023-06-01T00:20:42;87092.28;;;10.29;100.00
11678;BME280;5895;41.950;24.372;2023-06-01T00:23:10;87095.88;;;10.28;100.00
11678;BME280;5895;41.950;24.372;2023-06-01T00:25:37;87100.28;;;10.27;100.00
11678;BME280;5895;41.950;24.372;2023-06-01T00:28:04;87107.28;;;10.27;100.00
11678;BME280;5895;41.950;24.372;2023-06-01T00:30:31;87103.84;;;10.26;100.00
11678;BME280;5895;41.950;24.372;2023-06-01T00:32:58;87103.66;;;10.28;100.00
11678;BME280;5895;41.950;24.372;2023-06-01T00:35:25;87107.03;;;10.28;100.00
11678;BME280;5895;41.950;24.372;2023-06-01T00:37:54;87106.25;;;10.28;100.00
11678;BME280;5895;41.950;24.372;2023-06-01T00:40:21;87102.66;;;10.29;100.00
11678;BME280;5895;41.950;24.372;2023-06-01T00:42:48;87102.66;;;10.29;100.00
11678;BME280;5895;41.950;24.372;2023-06-01T00:45:15;87100.63;;;10.31;100.00
11678;BME280;5895;41.950;24.372;2023-06-01T00:47:43;87098.63;;;10.33;100.00
11678;BME280;5895;41.950;24.372;2023-06-01T00:50:11;87100.19;;;10.34;100.00
11678;BME280;5895;41.950;24.372;2023-06-01T00:52:40;87100.97;;;10.35;100.00
11678;BME280;5895;41.950;24.372;2023-06-01T00:55:10;87104.38;;;10.35;100.00
11678;BME280;5895;41.950;24.372;2023-06-01T00:57:38;87092.97;;;10.36;100.00
11678;BME280;5895;41.950;24.372;2023-06-01T01:00:09;87107.75;;;10.36;100.00
11678;BME280;5895;41.950;24.372;2023-06-01T01:02:36;87101.78;;;10.35;100.00
11678;BME280;5895;41.950;24.372;2023-06-01T01:05:05;87100.19;;;10.34;100.00
11678;BME280;5895;41.950;24.372;2023-06-01T01:07:45;87100.19;;;10.34;100.00
11678;BME280;5895;41.950;24.372;2023-06-01T01:10:25;87102.00;;;10.33;100.00
11678;BME280;5895;41.950;24.372;2023-06-01T01:13:04;87102.19;;;10.32;100.00
11678;BME280;5895;41.950;24.372;2023-06-01T01:15:41;87088.44;;;10.31;100.00
11678;BME280;5895;41.950;24.372;2023-06-01T01:18:15;87087.66;;;10.31;100.00
11678;BME280;5895;41.950;24.372;2023-06-01T01:20:55;87093.06;;;10.29;100.00
11678;BME280;5895;41.950;24.372;2023-06-01T01:23:47;87096.31;;;10.25;100.00
11678;BME280;5895;41.950;24.372;2023-06-01T01:26:24;87079.56;;;10.21;100.00
11678;BME280;5895;41.950;24.372;2023-06-01T01:29:00;87093.53;;;10.20;100.00
11678;BME280;5895;41.950;24.372;2023-06-01T01:31:30;87089.22;;;10.14;100.00
11678;BME280;5895;41.950;24.372;2023-06-01T01:33:59;87098.00;;;10.13;100.00
11678;BME280;5895;41.950;24.372;2023-06-01T01:36:28;87093.25;;;10.10;100.00
11678;BME280;5895;41.950;24.372;2023-06-01T01:38:56;87090.09;;;10.07;100.00
11678;BME280;5895;41.950;24.372;2023-06-01T01:41:23;87094.91;;;10.04;100.00
11678;BME280;5895;41.950;24.372;2023-06-01T01:43:51;87093.78;;;10.00;100.00
11678;BME280;5895;41.950;24.372;2023-06-01T01:46:25;87087.00;;;9.99;100.00
11678;BME280;5895;41.950;24.372;2023-06-01T01:49:01;87083.03;;;9.96;100.00
11678;BME280;5895;41.950;24.372;2023-06-01T01:51:36;87084.47;;;9.92;100.00
11678;BME280;5895;41.950;24.372;2023-06-01T01:54:05;87085.94;;;9.88;100.00
11678;BME280;5895;41.950;24.372;2023-06-01T01:56:35;87078.34;;;9.87;100.00
11678;BME280;5895;41.950;24.372;2023-06-01T01:59:03;87079.59;;;9.84;100.00
11678;BME280;5895;41.950;24.372;2023-06-01T02:01:32;87089.00;;;9.78;100.00
11678;BME280;5895;41.950;24.372;2023-06-01T02:04:01;87081.47;;;9.77;100.00
11678;BME280;5895;41.950;24.372;2023-06-01T02:06:28;87087.06;;;9.74;100.00
11678;BME280;5895;41.950;24.372;2023-06-01T02:08:56;87096.84;;;9.72;100.00
11678;BME280;5895;41.950;24.372;2023-06-01T02:11:23;87088.94;;;9.67;100.00
11678;BME280;5895;41.950;24.372;2023-06-01T02:13:50;87088.94;;;9.67;100.00
11678;BME280;5895;41.950;24.372;2023-06-01T02:16:17;87096.94;;;9.65;100.00
11678;BME280;5895;41.950;24.372;2023-06-01T02:18:46;87094.13;;;9.67;100.00
11678;BME280;5895;41.950;24.372;2023-06-01T02:21:13;87100.88;;;9.68;100.00
11678;BME280;5895;41.950;24.372;2023-06-01T02:23:40;87100.88;;;9.68;100.00
11678;BME280;5895;41.950;24.372;2023-06-01T02:26:07;87096.09;;;9.65;100.00
11678;BME280;5895;41.950;24.372;2023-06-01T02:28:36;87101.28;;;9.65;100.00
11678;BME280;5895;41.950;24.372;2023-06-01T02:31:04;87103.31;;;9.63;100.00
11678;BME280;5895;41.950;24.372;2023-06-01T02:33:31;87105.13;;;9.62;100.00
11678;BME280;5895;41.950;24.372;2023-06-01T02:36:00;87099.16;;;9.62;100.00
11678;BME280;5895;41.950;24.372;2023-06-01T02:38:27;87100.16;;;9.61;100.00
11678;BME280;5895;41.950;24.372;2023-06-01T02:40:54;87103.75;;;9.60;100.00
11678;BME280;5895;41.950;24.372;2023-06-01T02:43:22;87101.34;;;9.58;100.00
11678;BME280;5895;41.950;24.372;2023-06-01T02:45:49;87100.56;;;9.58;100.00
11678;BME280;5895;41.950;24.372;2023-06-01T02:48:16;87107.34;;;9.59;100.00
11678;BME280;5895;41.950;24.372;2023-06-01T02:50:43;87105.75;;;9.58;100.00
11678;BME280;5895;41.950;24.372;2023-06-01T02:53:11;87105.75;;;9.58;100.00
11678;BME280;5895;41.950;24.372;2023-06-01T02:55:38;87108.34;;;9.58;100.00
11678;BME280;5895;41.950;24.372;2023-06-01T02:58:06;87104.56;;;9.60;100.00
11678;BME280;5895;41.950;24.372;2023-06-01T03:00:40;87104.56;;;9.60;100.00
11678;BME280;5895;41.950;24.372;2023-06-01T03:03:07;87107.94;;;9.61;100.00
11678;BME280;5895;41.950;24.372;2023-06-01T03:05:34;87099.16;;;9.62;100.00
11678;BME280;5895;41.950;24.372;2023-06-01T03:08:01;87100.72;;;9.63;100.00
11678;BME280;5895;41.950;24.372;2023-06-01T03:10:30;87107.47;;;9.64;100.00
11678;BME280;5895;41.950;24.372;2023-06-01T03:12:57;87106.47;;;9.65;100.00
11678;BME280;5895;41.950;24.372;2023-06-01T03:15:24;87103.69;;;9.66;100.00
11678;BME280;5895;41.950;24.372;2023-06-01T03:17:52;87109.44;;;9.68;100.00
11678;BME280;5895;41.950;24.372;2023-06-01T03:20:20;87117.00;;;9.70;100.00
11678;BME280;5895;41.950;24.372;2023-06-01T03:22:47;87112.41;;;9.72;100.00
11678;BME280;5895;41.950;24.372;2023-06-01T03:25:14;87113.41;;;9.71;100.00
11678;BME280;5895;41.950;24.372;2023-06-01T03:27:43;87115.56;;;9.74;100.00
11678;BME280;5895;41.950;24.372;2023-06-01T03:30:11;87117.50;;;9.78;100.00
11678;BME280;5895;41.950;24.372;2023-06-01T03:32:39;87123.25;;;9.80;100.00
11678;BME280;5895;41.950;24.372;2023-06-01T03:35:08;87111.09;;;9.81;100.00
11678;BME280;5895;41.950;24.372;2023-06-01T03:37:37;87117.50;;;9.78;100.00
11678;BME280;5895;41.950;24.372;2023-06-01T03:40:05;87110.31;;;9.80;100.00
11678;BME280;5895;41.950;24.372;2023-06-01T03:42:36;87121.69;;;9.79;100.00
11678;BME280;5895;41.950;24.372;2023-06-01T03:45:05;87125.06;;;9.80;100.00
11678;BME280;5895;41.950;24.372;2023-06-01T03:47:33;87123.06;;;9.82;100.00
11678;BME280;5895;41.950;24.372;2023-06-01T03:50:00;87125.06;;;9.80;100.00
11678;BME280;5895;41.950;24.372;2023-06-01T03:52:27;87114.28;;;9.83;100.00
11678;BME280;5895;41.950;24.372;2023-06-01T03:54:55;87113.06;;;9.86;100.00
11678;BME280;5895;41.950;24.372;2023-06-01T03:57:22;87114.63;;;9.87;100.00
11678;BME280;5895;41.950;24.372;2023-06-01T03:59:49;87113.84;;;9.86;100.00
11678;BME280;5895;41.950;24.372;2023-06-01T04:02:19;87111.84;;;9.88;100.00
11678;BME280;5895;41.950;24.372;2023-06-01T04:04:47;87117.81;;;9.89;100.00
11678;BME280;5895;41.950;24.372;2023-06-01T04:07:14;87119.63;;;9.88;100.00
11678;BME280;5895;41.950;24.372;2023-06-01T04:09:44;87120.19;;;9.90;100.00
11678;BME280;5895;41.950;24.372;2023-06-01T04:12:12;87116.00;;;9.89;100.00
11678;BME280;5895;41.950;24.372;2023-06-01T04:14:40;87117.19;;;9.93;100.00
11678;BME280;5895;41.950;24.372;2023-06-01T04:17:07;87124.50;;;9.96;100.00
11678;BME280;5895;41.950;24.372;2023-06-01T04:19:37;87123.50;;;9.97;100.00
11678;BME280;5895;41.950;24.372;2023-06-01T04:22:05;87130.84;;;10.00;100.00
11678;BME280;5895;41.950;24.372;2023-06-01T04:24:32;87123.66;;;10.02;100.00
11678;BME280;5895;41.950;24.372;2023-06-01T04:27:00;87133.38;;;10.07;100.00
11678;BME280;5895;41.950;24.372;2023-06-01T04:29:28;87127.53;;;10.12;100.00
11678;BME280;5895;41.950;24.372;2023-06-01T04:31:55;87132.28;;;10.15;100.00
11678;BME280;5895;41.950;24.372;2023-06-01T04:34:22;87128.25;;;10.19;100.00
11678;BME280;5895;41.950;24.372;2023-06-01T04:36:51;87139.38;;;10.26;100.00
11678;BME280;5895;41.950;24.372;2023-06-01T04:39:19;87137.38;;;10.28;100.00
11678;BME280;5895;41.950;24.372;2023-06-01T04:41:46;87138.09;;;10.35;100.00
11678;BME280;5895;41.950;24.372;2023-06-01T04:44:14;87141.38;;;10.42;100.00
11678;BME280;5895;41.950;24.372;2023-06-01T04:46:43;87139.88;;;10.53;100.00
11678;BME280;5895;41.950;24.372;2023-06-01T04:49:11;87136.31;;;10.66;100.00
11678;BME280;5895;41.950;24.372;2023-06-01T04:51:41;87135.56;;;10.77;100.00
11678;BME280;5895;41.950;24.372;2023-06-01T04:54:09;87145.78;;;10.90;100.00
11678;BME280;5895;41.950;24.372;2023-06-01T04:56:37;87147.63;;;11.01;100.00
11678;BME280;5895;41.950;24.372;2023-06-01T04:59:04;87142.72;;;11.11;100.00
11678;BME280;5895;41.950;24.372;2023-06-01T05:01:31;87148.13;;;11.22;100.00
11678;BME280;5895;41.950;24.372;2023-06-01T05:03:58;87143.97;;;11.32;100.00
11678;BME280;5895;41.950;24.372;2023-06-01T05:06:26;87143.88;;;11.39;100.00
11678;BME280;5895;41.950;24.372;2023-06-01T05:08:53;87141.66;;;11.54;100.00
11678;BME280;5895;41.950;24.372;2023-06-01T05:11:22;87150.25;;;11.66;100.00
11678;BME280;5895;41.950;24.372;2023-06-01T05:13:49;87142.69;;;11.77;100.00
11678;BME280;5895;41.950;24.372;2023-06-01T05:16:16;87137.22;;;11.85;100.00
11678;BME280;5895;41.950;24.372;2023-06-01T05:18:43;87138.53;;;11.99;100.00
11678;BME280;5895;41.950;24.372;2023-06-01T05:21:11;87148.75;;;12.12;100.00
11678;BME280;5895;41.950;24.372;2023-06-01T05:23:38;87136.50;;;12.25;100.00
11678;BME280;5895;41.950;24.372;2023-06-01T05:26:05;87136.72;;;12.35;100.00
11678;BME280;5895;41.950;24.372;2023-06-01T05:28:34;87142.13;;;12.45;100.00
11678;BME280;5895;41.950;24.372;2023-06-01T05:31:02;87144.69;;;12.57;100.00
11678;BME280;5895;41.950;24.372;2023-06-01T05:33:29;87154.09;;;12.69;100.00
11678;BME280;5895;41.950;24.372;2023-06-01T05:35:56;87143.88;;;12.80;100.00
11678;BME280;5895;41.950;24.372;2023-06-01T05:38:23;87142.81;;;12.92;100.00
11678;BME280;5895;41.950;24.372;2023-06-01T05:40:50;87152.41;;;13.04;100.00
11678;BME280;5895;41.950;24.372;2023-06-01T05:43:17;87146.34;;;13.15;100.00
11678;BME280;5895;41.950;24.372;2023-06-01T05:45:46;87146.88;;;13.29;100.00
11678;BME280;5895;41.950;24.372;2023-06-01T05:48:14;87150.22;;;13.41;100.00
11678;BME280;5895;41.950;24.372;2023-06-01T05:50:41;87151.50;;;13.55;100.00
11678;BME280;5895;41.950;24.372;2023-06-01T05:53:08;87149.63;;;13.67;100.00
11678;BME280;5895;41.950;24.372;2023-06-01T05:55:36;87153.44;;;13.76;100.00
11678;BME280;5895;41.950;24.372;2023-06-01T05:58:03;87152.56;;;13.88;100.00
11678;BME280;5895;41.950;24.372;2023-06-01T06:00:30;87151.69;;;13.99;100.00
11678;BME280;5895;41.950;24.372;2023-06-01T06:02:58;87144.81;;;14.10;100.00
11678;BME280;5895;41.950;24.372;2023-06-01T06:05:26;87148.38;;;14.20;100.00
11678;BME280;5895;41.950;24.372;2023-06-01T06:07:53;87151.34;;;14.29;100.00
11678;BME280;5895;41.950;24.372;2023-06-01T06:10:20;87150.97;;;14.37;100.00
11678;BME280;5895;41.950;24.372;2023-06-01T06:12:47;87151.81;;;14.43;100.00
11678;BME280;5895;41.950;24.372;2023-06-01T06:15:14;87147.50;;;14.48;100.00
11678;BME280;5895;41.950;24.372;2023-06-01T06:17:42;87145.97;;;14.52;100.00
11678;BME280;5895;41.950;24.372;2023-06-01T06:20:12;87143.97;;;14.60;100.00
11678;BME280;5895;41.950;24.372;2023-06-01T06:22:41;87148.47;;;14.64;99.45
11678;BME280;5895;41.950;24.372;2023-06-01T06:25:09;87152.44;;;14.67;99.35
11678;BME280;5895;41.950;24.372;2023-06-01T06:27:37;87149.81;;;14.67;96.27
11678;BME280;5895;41.950;24.372;2023-06-01T06:30:06;87155.91;;;14.72;96.99
11678;BME280;5895;41.950;24.372;2023-06-01T06:32:33;87153.34;;;14.77;96.19
11678;BME280;5895;41.950;24.372;2023-06-01T06:35:01;87156.03;;;14.82;95.91
11678;BME280;5895;41.950;24.372;2023-06-01T06:37:30;87148.41;;;14.81;96.00
11678;BME280;5895;41.950;24.372;2023-06-01T06:39:57;87160.09;;;14.95;96.00
11678;BME280;5895;41.950;24.372;2023-06-01T06:42:25;87158.34;;;15.01;94.54
11678;BME280;5895;41.950;24.372;2023-06-01T06:44:53;87147.41;;;15.04;92.49
11678;BME280;5895;41.950;24.372;2023-06-01T06:47:21;87152.19;;;15.12;93.21
11678;BME280;5895;41.950;24.372;2023-06-01T06:49:50;87149.38;;;15.19;92.56
11678;BME280;5895;41.950;24.372;2023-06-01T06:52:17;87151.59;;;15.27;92.55
11678;BME280;5895;41.950;24.372;2023-06-01T06:54:46;87149.81;;;15.32;91.30
11678;BME280;5895;41.950;24.372;2023-06-01T06:57:13;87145.16;;;15.40;91.40
11678;BME280;5895;41.950;24.372;2023-06-01T06:59:40;87148.38;;;15.47;91.22
11678;BME280;5895;41.950;24.372;2023-06-01T07:02:07;87158.94;;;15.57;91.62
11678;BME280;5895;41.950;24.372;2023-06-01T07:04:34;87149.34;;;15.63;89.81
11678;BME280;5895;41.950;24.372;2023-06-01T07:07:01;87148.88;;;15.66;88.43
11678;BME280;5895;41.950;24.372;2023-06-01T07:09:29;87146.06;;;15.72;88.26
11678;BME280;5895;41.950;24.372;2023-06-01T07:11:58;87154.97;;;15.76;88.33
11678;BME280;5895;41.950;24.372;2023-06-01T07:14:25;87147.63;;;15.73;89.83
11678;BME280;5895;41.950;24.372;2023-06-01T07:16:53;87153.66;;;15.74;87.95
11678;BME280;5895;41.950;24.372;2023-06-01T07:19:20;87141.44;;;15.84;87.36
11678;BME280;5895;41.950;24.372;2023-06-01T07:21:47;87153.56;;;15.96;87.96
11678;BME280;5895;41.950;24.372;2023-06-01T07:24:17;87142.41;;;16.05;84.63
11678;BME280;5895;41.950;24.372;2023-06-01T07:26:45;87146.88;;;16.10;86.58
11678;BME280;5895;41.950;24.372;2023-06-01T07:29:13;87142.75;;;16.19;85.45
11678;BME280;5895;41.950;24.372;2023-06-01T07:31:41;87146.22;;;16.25;86.25
11678;BME280;5895;41.950;24.372;2023-06-01T07:34:08;87149.66;;;16.30;85.99
11678;BME280;5895;41.950;24.372;2023-06-01T07:36:35;87137.38;;;16.36;85.57
11678;BME280;5895;41.950;24.372;2023-06-01T07:39:03;87147.59;;;16.37;84.48
11678;BME280;5895;41.950;24.372;2023-06-01T07:41:32;87151.84;;;16.44;85.09
11678;BME280;5895;41.950;24.372;2023-06-01T07:43:59;87140.94;;;16.57;84.23
11678;BME280;5895;41.950;24.372;2023-06-01T07:46:28;87139.94;;;16.68;82.25
11678;BME280;5895;41.950;24.372;2023-06-01T07:48:55;87132.63;;;16.70;84.31
11678;BME280;5895;41.950;24.372;2023-06-01T07:51:23;87134.66;;;16.58;85.78
11678;BME280;5895;41.950;24.372;2023-06-01T07:53:50;87132.53;;;16.55;85.83
11678;BME280;5895;41.950;24.372;2023-06-01T07:56:18;87130.50;;;16.62;86.42
11678;BME280;5895;41.950;24.372;2023-06-01T07:58:45;87136.19;;;16.54;86.64
11678;BME280;5895;41.950;24.372;2023-06-01T08:01:12;87129.34;;;16.48;86.33
11678;BME280;5895;41.950;24.372;2023-06-01T08:03:43;87140.00;;;16.36;82.81
11678;BME280;5895;41.950;24.372;2023-06-01T08:06:12;87136.94;;;16.49;90.67
11678;BME280;5895;41.950;24.372;2023-06-01T08:08:39;87135.66;;;16.52;93.21
11678;BME280;5895;41.950;24.372;2023-06-01T08:11:07;87124.69;;;16.60;95.23
11678;BME280;5895;41.950;24.372;2023-06-01T08:13:35;87125.38;;;16.82;92.89
11678;BME280;5895;41.950;24.372;2023-06-01T08:16:02;87127.56;;;17.06;92.75
11678;BME280;5895;41.950;24.372;2023-06-01T08:18:30;87122.34;;;17.11;94.67
11678;BME280;5895;41.950;24.372;2023-06-01T08:20:59;87130.75;;;17.13;94.95
11678;BME280;5895;41.950;24.372;2023-06-01T08:23:27;87129.25;;;17.32;94.23
11678;BME280;5895;41.950;24.372;2023-06-01T08:25:54;87126.16;;;17.51;92.01
11678;BME280;5895;41.950;24.372;2023-06-01T08:28:21;87129.88;;;17.65;90.45
11678;BME280;5895;41.950;24.372;2023-06-01T08:30:48;87134.88;;;17.71;86.65
11678;BME280;5895;41.950;24.372;2023-06-01T08:33:16;87127.34;;;17.90;84.41
11678;BME280;5895;41.950;24.372;2023-06-01T08:35:43;87131.03;;;18.15;86.81
11678;BME280;5895;41.950;24.372;2023-06-01T08:38:11;87128.91;;;18.37;91.57
11678;BME280;5895;41.950;24.372;2023-06-01T08:40:38;87121.53;;;18.29;92.92
11678;BME280;5895;41.950;24.372;2023-06-01T08:43:12;87109.97;;;18.50;91.97
11678;BME280;5895;41.950;24.372;2023-06-01T08:45:41;87110.25;;;18.69;92.27
11678;BME280;5895;41.950;24.372;2023-06-01T08:48:14;87121.50;;;18.90;91.93
11678;BME280;5895;41.950;24.372;2023-06-01T08:50:42;87120.22;;;18.83;92.65
11678;BME280;5895;41.950;24.372;2023-06-01T08:53:11;87114.38;;;18.96;91.74
11678;BME280;5895;41.950;24.372;2023-06-01T08:55:39;87106.94;;;19.18;92.63
11678;BME280;5895;41.950;24.372;2023-06-01T08:58:07;87116.69;;;19.18;93.24
11678;BME280;5895;41.950;24.372;2023-06-01T09:00:35;87117.28;;;19.05;94.52
11678;BME280;5895;41.950;24.372;2023-06-01T09:03:03;87117.28;;;18.99;94.18
11678;BME280;5895;41.950;24.372;2023-06-01T09:05:30;87118.53;;;19.22;93.53
11678;BME280;5895;41.950;24.372;2023-06-01T09:07:57;87113.53;;;19.26;93.78
11678;BME280;5895;41.950;24.372;2023-06-01T09:10:25;87108.56;;;19.14;93.66
11678;BME280;5895;41.950;24.372;2023-06-01T09:12:53;87111.97;;;19.15;93.66
11678;BME280;5895;41.950;24.372;2023-06-01T09:15:22;87113.75;;;19.29;93.86
11678;BME280;5895;41.950;24.372;2023-06-01T09:17:52;87113.22;;;19.33;92.88
11678;BME280;5895;41.950;24.372;2023-06-01T09:20:24;87113.38;;;19.56;91.82
11678;BME280;5895;41.950;24.372;2023-06-01T09:22:52;87100.16;;;19.72;92.21
11678;BME280;5895;41.950;24.372;2023-06-01T09:25:23;87104.44;;;20.02;91.43
11678;BME280;5895;41.950;24.372;2023-06-01T09:27:54;87107.75;;;20.23;90.87
11678;BME280;5895;41.950;24.372;2023-06-01T09:30:23;87106.91;;;20.27;90.97
11678;BME280;5895;41.950;24.372;2023-06-01T09:33:06;87111.97;;;20.19;86.17
11678;BME280;5895;41.950;24.372;2023-06-01T09:35:41;87104.84;;;20.19;85.73
11678;BME280;5895;41.950;24.372;2023-06-01T09:38:09;87106.34;;;19.96;91.00
11678;BME280;5895;41.950;24.372;2023-06-01T09:40:37;87105.91;;;19.79;91.00
11678;BME280;5895;41.950;24.372;2023-06-01T09:43:20;87096.13;;;19.85;81.40
11678;BME280;5895;41.950;24.372;2023-06-01T09:46:03;87096.03;;;20.00;84.34
11678;BME280;5895;41.950;24.372;2023-06-01T09:48:31;87094.09;;;20.16;90.37
11678;BME280;5895;41.950;24.372;2023-06-01T09:50:58;87101.97;;;20.21;90.03
11678;BME280;5895;41.950;24.372;2023-06-01T09:53:26;87100.22;;;20.40;88.21
11678;BME280;5895;41.950;24.372;2023-06-01T09:55:57;87086.09;;;20.65;85.01
11678;BME280;5895;41.950;24.372;2023-06-01T09:58:26;87091.19;;;20.80;88.36
11678;BME280;5895;41.950;24.372;2023-06-01T10:00:53;87087.78;;;21.04;86.87
11678;BME280;5895;41.950;24.372;2023-06-01T10:03:21;87077.81;;;21.25;86.22
11678;BME280;5895;41.950;24.372;2023-06-01T10:05:49;87079.47;;;21.45;85.28
11678;BME280;5895;41.950;24.372;2023-06-01T10:08:17;87084.34;;;21.56;84.47
11678;BME280;5895;41.950;24.372;2023-06-01T10:10:46;87081.94;;;21.55;84.63
11678;BME280;5895;41.950;24.372;2023-06-01T10:13:13;87072.88;;;21.42;85.75
11678;BME280;5895;41.950;24.372;2023-06-01T10:15:42;87066.47;;;21.48;85.35
11678;BME280;5895;41.950;24.372;2023-06-01T10:18:09;87068.97;;;21.58;84.60
11678;BME280;5895;41.950;24.372;2023-06-01T10:20:37;87074.44;;;21.67;85.84
11678;BME280;5895;41.950;24.372;2023-06-01T10:23:06;87081.56;;;21.85;83.99
11678;BME280;5895;41.950;24.372;2023-06-01T10:25:38;87075.31;;;22.00;81.50
11678;BME280;5895;41.950;24.372;2023-06-01T10:28:10;87067.06;;;21.83;82.68
11678;BME280;5895;41.950;24.372;2023-06-01T10:30:37;87072.66;;;22.00;82.87
11678;BME280;5895;41.950;24.372;2023-06-01T10:33:06;87062.09;;;22.00;80.22
11678;BME280;5895;41.950;24.372;2023-06-01T10:36:01;87067.50;;;21.90;71.96
11678;BME280;5895;41.950;24.372;2023-06-01T10:38:29;87065.72;;;21.67;82.14
11678;BME280;5895;41.950;24.372;2023-06-01T10:41:30;87065.78;;;21.13;73.53
11678;BME280;5895;41.950;24.372;2023-06-01T10:43:58;87053.63;;;21.18;84.39
11678;BME280;5895;41.950;24.372;2023-06-01T10:46:41;87059.16;;;20.92;76.54
11678;BME280;5895;41.950;24.372;2023-06-01T10:49:10;87054.56;;;20.79;85.56
11678;BME280;5895;41.950;24.372;2023-06-01T10:51:37;87057.34;;;20.64;85.53
11678;BME280;5895;41.950;24.372;2023-06-01T10:54:30;87054.88;;;20.43;77.83
11678;BME280;5895;41.950;24.372;2023-06-01T10:57:19;87051.00;;;20.65;78.02
11678;BME280;5895;41.950;24.372;2023-06-01T11:00:12;87034.69;;;20.86;74.29
11678;BME280;5895;41.950;24.372;2023-06-01T11:02:51;87043.16;;;21.07;80.45
11678;BME280;5895;41.950;24.372;2023-06-01T11:05:40;87037.06;;;21.36;76.61
11678;BME280;5895;41.950;24.372;2023-06-01T11:11:14;87038.44;;;21.90;80.55
11678;BME280;5895;41.950;24.372;2023-06-01T11:13:42;87035.06;;;22.03;80.38
11678;BME280;5895;41.950;24.372;2023-06-01T11:16:30;87027.38;;;22.26;70.13
11678;BME280;5895;41.950;24.372;2023-06-01T11:18:58;87025.63;;;22.35;79.16
11678;BME280;5895;41.950;24.372;2023-06-01T11:21:29;87037.72;;;22.03;77.42
11678;BME280;5895;41.950;24.372;2023-06-01T11:23:58;87029.66;;;21.76;80.92
11678;BME280;5895;41.950;24.372;2023-06-01T11:26:30;87033.09;;;21.57;76.36
11678;BME280;5895;41.950;24.372;2023-06-01T11:29:06;87018.09;;;21.34;75.66
11678;BME280;5895;41.950;24.372;2023-06-01T11:31:35;87023.22;;;21.20;82.67
11678;BME280;5895;41.950;24.372;2023-06-01T11:34:03;87014.84;;;20.94;81.91
11678;BME280;5895;41.950;24.372;2023-06-01T11:36:36;87009.44;;;20.80;76.98
11678;BME280;5895;41.950;24.372;2023-06-01T11:39:03;87009.38;;;21.09;80.43
11678;BME280;5895;41.950;24.372;2023-06-01T11:41:34;87003.25;;;21.14;79.74
11678;BME280;5895;41.950;24.372;2023-06-01T11:44:01;87009.00;;;20.73;80.38
11678;BME280;5895;41.950;24.372;2023-06-01T11:46:28;87001.75;;;20.84;81.26
11678;BME280;5895;41.950;24.372;2023-06-01T11:48:59;86995.63;;;21.12;77.76
11678;BME280;5895;41.950;24.372;2023-06-01T11:51:29;86995.47;;;21.47;79.31
11678;BME280;5895;41.950;24.372;2023-06-01T11:54:00;86994.84;;;21.74;74.51
11678;BME280;5895;41.950;24.372;2023-06-01T11:56:29;86987.59;;;21.60;75.68
11678;BME280;5895;41.950;24.372;2023-06-01T11:58:58;86988.06;;;21.25;78.18
11678;BME280;5895;41.950;24.372;2023-06-01T12:01:25;86985.97;;;21.03;80.03
11678;BME280;5895;41.950;24.372;2023-06-01T12:03:53;86981.09;;;20.91;80.47
11678;BME280;5895;41.950;24.372;2023-06-01T12:06:24;86976.47;;;20.83;78.84
11678;BME280;5895;41.950;24.372;2023-06-01T12:08:52;86974.50;;;21.12;78.48
11678;BME280;5895;41.950;24.372;2023-06-01T12:11:25;86962.97;;;21.27;73.62
11678;BME280;5895;41.950;24.372;2023-06-01T12:13:53;86969.72;;;21.57;78.47
11678;BME280;5895;41.950;24.372;2023-06-01T12:16:22;86974.50;;;21.74;78.68
11678;BME280;5895;41.950;24.372;2023-06-01T12:18:49;86966.97;;;22.00;77.47
11678;BME280;5895;41.950;24.372;2023-06-01T12:21:16;86962.09;;;22.07;76.29
11678;BME280;5895;41.950;24.372;2023-06-01T12:23:48;86966.47;;;22.17;75.89
11678;BME280;5895;41.950;24.372;2023-06-01T12:26:17;86966.75;;;21.97;76.98
11678;BME280;5895;41.950;24.372;2023-06-01T12:28:49;86965.94;;;22.15;72.98
11678;BME280;5895;41.950;24.372;2023-06-01T12:31:19;86965.09;;;22.20;76.58
11678;BME280;5895;41.950;24.372;2023-06-01T12:33:47;86956.81;;;22.40;74.74
11678;BME280;5895;41.950;24.372;2023-06-01T12:36:31;86964.66;;;22.45;59.43
11678;BME280;5895;41.950;24.372;2023-06-01T12:38:59;86957.72;;;22.63;74.92
11678;BME280;5895;41.950;24.372;2023-06-01T12:41:27;86961.06;;;22.68;74.39
11678;BME280;5895;41.950;24.372;2023-06-01T12:43:56;86953.78;;;22.60;72.64
11678;BME280;5895;41.950;24.372;2023-06-01T12:46:25;86955.59;;;22.18;75.21
11678;BME280;5895;41.950;24.372;2023-06-01T12:48:53;86954.47;;;21.87;75.76
11678;BME280;5895;41.950;24.372;2023-06-01T12:51:21;86950.84;;;21.83;76.29
11678;BME280;5895;41.950;24.372;2023-06-01T12:53:48;86957.84;;;21.74;75.59
11678;BME280;5895;41.950;24.372;2023-06-01T12:56:15;86952.75;;;21.96;76.35
11678;BME280;5895;41.950;24.372;2023-06-01T12:58:42;86960.72;;;22.29;75.55
11678;BME280;5895;41.950;24.372;2023-06-01T13:01:12;86952.78;;;22.42;73.46
11678;BME280;5895;41.950;24.372;2023-06-01T13:03:39;86947.16;;;22.63;73.15
11678;BME280;5895;41.950;24.372;2023-06-01T13:06:06;86954.97;;;22.54;71.69
11678;BME280;5895;41.950;24.372;2023-06-01T13:08:34;86955.13;;;22.44;71.85
11678;BME280;5895;41.950;24.372;2023-06-01T13:11:01;86955.13;;;22.30;74.32